createdAt,value
2022-11-23T00:00:20.984Z,8.35
2022-11-23T00:05:52.756Z,8.31
2022-11-23T00:11:24.273Z,8.29
2022-11-23T00:16:56.294Z,8.28
2022-11-23T00:22:28.351Z,8.29
2022-11-23T00:28:00.245Z,8.26
2022-11-23T00:33:31.924Z,8.28
2022-11-23T00:39:03.872Z,8.26
2022-11-23T00:44:35.613Z,8.26
2022-11-23T00:50:07.269Z,8.25
2022-11-23T00:55:38.918Z,8.22
2022-11-23T01:01:10.801Z,8.21
2022-11-23T01:06:42.582Z,8.18
2022-11-23T01:12:14.408Z,8.18
2022-11-23T01:17:46.031Z,8.09
2022-11-23T01:23:18.289Z,8.07
2022-11-23T01:28:50.217Z,8.02
2022-11-23T01:34:22.069Z,7.91
2022-11-23T01:39:53.806Z,7.91
2022-11-23T01:45:25.624Z,7.83
2022-11-23T01:50:57.403Z,7.80
2022-11-23T01:56:29.483Z,7.74
2022-11-23T02:02:01.056Z,7.69
2022-11-23T02:07:33.081Z,7.63
2022-11-23T02:18:34.121Z,7.59
2022-11-23T02:24:06.156Z,7.50
2022-11-23T02:29:37.664Z,7.42
2022-11-23T02:35:09.590Z,7.32
2022-11-23T02:40:41.352Z,7.21
2022-11-23T02:46:13.438Z,7.11
2022-11-23T02:51:45.466Z,6.98
2022-11-23T02:57:17.641Z,6.93
2022-11-23T03:04:43.750Z,0.00
2022-11-23T03:10:15.447Z,6.73
2022-11-23T03:15:47.274Z,6.66
2022-11-23T03:21:19.212Z,6.53
2022-11-23T03:26:50.705Z,6.43
2022-11-23T03:32:22.150Z,6.33
2022-11-23T03:37:53.939Z,6.26
2022-11-23T03:43:25.709Z,6.25
2022-11-23T03:48:57.451Z,6.18
2022-11-23T03:54:29.442Z,6.17
2022-11-23T04:00:01.275Z,6.11
2022-11-23T04:05:33.075Z,6.11
2022-11-23T04:11:04.590Z,6.10
2022-11-23T04:16:36.663Z,6.10
2022-11-23T04:22:08.372Z,6.17
2022-11-23T04:27:40.472Z,6.20
2022-11-23T04:33:12.485Z,6.28
2022-11-23T04:38:44.112Z,6.32
2022-11-23T04:44:15.739Z,6.45
2022-11-23T04:49:47.702Z,6.48
2022-11-23T04:55:19.378Z,6.59
2022-11-23T05:00:51.267Z,6.61
2022-11-23T05:06:22.945Z,6.72
2022-11-23T05:11:54.466Z,6.73
2022-11-23T05:17:26.491Z,6.80
2022-11-23T05:22:58.094Z,6.86
2022-11-23T05:28:40.359Z,6.91
2022-11-23T05:34:01.654Z,6.94
2022-11-23T05:39:33.592Z,7.01
2022-11-23T05:45:10.054Z,7.03
2022-11-23T05:50:36.921Z,7.03
2022-11-23T05:56:08.711Z,7.08
2022-11-23T06:01:40.655Z,7.11
2022-11-23T06:07:12.395Z,7.12
2022-11-23T06:12:44.214Z,7.16
2022-11-23T06:18:15.822Z,7.19
2022-11-23T06:23:47.747Z,7.16
2022-11-23T06:29:19.739Z,7.22
2022-11-23T06:34:51.636Z,7.25
2022-11-23T06:40:23.724Z,7.29
2022-11-23T06:45:55.258Z,7.32
2022-11-23T06:51:27.001Z,7.38
2022-11-23T06:56:58.873Z,7.45
2022-11-23T07:02:30.528Z,7.69
2022-11-23T07:08:02.529Z,7.80
2022-11-23T07:13:34.068Z,7.93
2022-11-23T07:19:05.891Z,7.98
2022-11-23T07:24:41.476Z,8.00
2022-11-23T07:30:09.352Z,8.01
2022-11-23T07:35:41.204Z,8.01
2022-11-23T07:41:12.817Z,8.04
2022-11-23T07:46:44.654Z,8.14
2022-11-23T07:52:16.299Z,8.21
2022-11-23T07:57:48.078Z,8.33
2022-11-23T08:03:28.492Z,8.42
2022-11-23T08:08:51.739Z,8.47
2022-11-23T08:14:23.429Z,8.60
2022-11-23T08:19:55.346Z,8.65
2022-11-23T08:25:26.970Z,8.77
2022-11-23T08:36:30.452Z,9.05
2022-11-23T08:42:02.085Z,9.16
2022-11-23T08:47:33.892Z,9.40
2022-11-23T08:53:05.791Z,9.58
2022-11-23T08:58:37.410Z,9.88
2022-11-23T09:04:09.485Z,10.01
2022-11-23T09:09:47.390Z,10.23
2022-11-23T09:15:24.764Z,10.37
2022-11-23T09:20:56.189Z,10.60
2022-11-23T09:26:28.288Z,10.67
2022-11-23T09:31:59.906Z,10.85
2022-11-23T09:37:31.735Z,10.92
2022-11-23T09:43:03.421Z,11.08
2022-11-23T09:48:35.301Z,11.13
2022-11-23T09:54:07.186Z,11.30
2022-11-23T09:59:38.986Z,11.35
2022-11-23T10:05:10.591Z,11.51
2022-11-23T10:10:42.253Z,11.54
2022-11-23T10:16:14.255Z,11.67
2022-11-23T10:21:46.309Z,11.73
2022-11-23T10:27:17.820Z,11.77
2022-11-23T10:32:55.794Z,11.80
2022-11-23T10:38:27.142Z,11.89
2022-11-23T10:43:58.694Z,11.93
2022-11-23T10:49:30.381Z,11.93
2022-11-23T10:55:02.229Z,11.95
2022-11-23T11:00:39.787Z,12.03
2022-11-23T11:06:11.961Z,12.02
2022-11-23T11:11:43.033Z,12.09
2022-11-23T11:17:21.155Z,12.10
2022-11-23T11:22:52.841Z,12.22
2022-11-23T11:28:24.384Z,12.25
2022-11-23T11:39:25.947Z,12.48
2022-11-23T11:44:57.855Z,12.50
2022-11-23T11:50:31.939Z,12.47
2022-11-23T11:56:01.211Z,12.47
2022-11-23T12:01:33.162Z,12.61
2022-11-23T12:07:05.174Z,12.78
2022-11-23T12:12:37.007Z,13.02
2022-11-23T12:23:40.641Z,13.20
2022-11-23T12:29:12.500Z,13.20
2022-11-23T12:34:44.363Z,13.12
2022-11-23T12:40:16.010Z,13.13
2022-11-23T12:45:47.827Z,13.16
2022-11-23T12:51:19.962Z,13.16
2022-11-23T12:56:51.747Z,13.13
2022-11-23T13:02:23.701Z,13.13
2022-11-23T13:07:55.803Z,13.10
2022-11-23T13:13:27.629Z,13.12
2022-11-23T13:19:04.373Z,13.18
2022-11-23T13:24:32.164Z,13.13
2022-11-23T13:30:03.520Z,12.96
2022-11-23T13:35:35.277Z,12.91
2022-11-23T13:41:07.248Z,12.88
2022-11-23T13:46:38.946Z,12.91
2022-11-23T13:52:10.782Z,12.92
2022-11-23T13:54:34.455Z,0.00
2022-11-23T14:00:05.779Z,12.76
2022-11-23T14:05:37.467Z,12.63
2022-11-23T14:11:09.647Z,12.39
2022-11-23T14:16:41.185Z,12.27
2022-11-23T14:22:13.023Z,12.09
2022-11-23T14:27:47.629Z,12.02
2022-11-23T14:33:16.681Z,11.88
2022-11-23T14:38:48.480Z,11.80
2022-11-23T14:44:20.189Z,11.63
2022-11-23T14:49:51.942Z,11.53
2022-11-23T14:55:23.753Z,11.33
2022-11-23T15:00:55.885Z,11.25
2022-11-23T15:06:27.363Z,11.05
2022-11-23T15:11:59.345Z,10.94
2022-11-23T15:17:30.900Z,10.75
2022-11-23T15:23:02.705Z,10.63
2022-11-23T15:28:34.384Z,10.36
2022-11-23T15:34:05.791Z,10.23
2022-11-23T15:39:37.516Z,10.10
2022-11-23T15:45:09.396Z,9.85
2022-11-23T15:50:41.324Z,9.78
2022-11-23T15:56:12.934Z,9.55
2022-11-23T16:01:44.801Z,9.46
2022-11-23T16:07:16.481Z,9.32
2022-11-23T16:12:48.362Z,9.25
2022-11-23T16:18:20.124Z,9.16
2022-11-23T16:23:51.738Z,9.07
2022-11-23T16:29:24.063Z,8.95
2022-11-23T16:34:56.118Z,8.88
2022-11-23T16:40:27.913Z,8.75
2022-11-23T16:45:59.555Z,8.71
2022-11-23T16:51:31.051Z,8.57
2022-11-23T16:57:02.698Z,8.54
2022-11-23T17:02:36.070Z,8.42
2022-11-23T17:08:07.850Z,8.33
2022-11-23T17:13:39.590Z,8.24
2022-11-23T17:19:11.465Z,8.18
2022-11-23T17:24:43.111Z,8.05
2022-11-23T17:30:14.899Z,7.94
2022-11-23T17:35:46.552Z,7.81
2022-11-23T17:41:18.038Z,7.77
2022-11-23T17:46:49.736Z,7.67
2022-11-23T17:52:21.330Z,7.59
2022-11-23T17:57:52.805Z,7.52
2022-11-23T18:03:24.840Z,7.43
2022-11-23T18:08:56.569Z,7.38
2022-11-23T18:14:28.102Z,7.29
2022-11-23T18:19:59.845Z,7.24
2022-11-23T18:25:31.708Z,7.16
2022-11-23T18:36:32.974Z,7.08
2022-11-23T18:42:06.077Z,7.07
2022-11-23T18:47:36.580Z,7.00
2022-11-23T18:53:08.436Z,6.95
2022-11-23T19:04:09.723Z,6.98
2022-11-23T19:15:10.915Z,7.18
2022-11-23T19:20:42.598Z,7.38
2022-11-23T19:31:44.068Z,7.59
2022-11-23T19:37:15.750Z,7.61
2022-11-23T19:42:47.490Z,7.71
2022-11-23T19:48:19.359Z,7.74
2022-11-23T19:56:12.655Z,0.00
2022-11-23T20:01:44.747Z,7.93
2022-11-23T20:07:16.592Z,7.88
2022-11-23T20:12:47.818Z,7.77
2022-11-23T20:18:19.334Z,7.67
2022-11-23T20:23:51.403Z,7.56
2022-11-23T20:29:22.817Z,7.49
2022-11-23T20:34:54.738Z,7.46
2022-11-23T20:45:55.683Z,7.47
2022-11-23T20:51:27.749Z,7.46
2022-11-23T20:56:59.363Z,7.49
2022-11-23T21:02:31.048Z,7.46
2022-11-23T21:08:02.965Z,7.43
2022-11-23T21:13:48.554Z,7.42
2022-11-23T21:19:06.464Z,7.38
2022-11-23T21:24:38.050Z,7.32
2022-11-23T21:30:09.737Z,7.31
2022-11-23T21:35:41.816Z,7.26
2022-11-23T21:41:13.650Z,7.26
2022-11-23T21:46:45.379Z,7.28
2022-11-23T21:52:17.065Z,7.26
2022-11-23T21:57:49.000Z,7.25
2022-11-23T22:03:20.803Z,7.22
2022-11-23T22:08:52.795Z,7.19
2022-11-23T22:14:24.933Z,7.19
2022-11-23T22:19:56.744Z,7.22
2022-11-23T22:25:28.439Z,7.24
2022-11-23T22:31:00.322Z,7.32
2022-11-23T22:36:32.186Z,7.36
2022-11-23T22:42:03.944Z,7.47
2022-11-23T22:47:35.442Z,7.56
2022-11-23T22:53:07.327Z,7.66
2022-11-23T22:58:39.360Z,7.88
2022-11-23T23:04:12.429Z,8.00
2022-11-23T23:09:44.269Z,8.16
2022-11-23T23:15:16.443Z,8.25
2022-11-23T23:20:48.250Z,8.42
2022-11-23T23:26:20.448Z,8.49
2022-11-23T23:31:52.688Z,8.61
2022-11-23T23:37:24.595Z,8.65
2022-11-23T23:42:56.496Z,8.81
2022-11-23T23:48:28.510Z,8.78
2022-11-23T23:54:00.156Z,8.91
2022-11-23T23:59:31.864Z,8.95
